Time;durP1;ratioP1;P1;durP2;ratioP2;P2;SDS_P1;SDS_P2;PMS_P1;PMS_P2;Temp;Humidity;BMP_temperature;BMP_pressure;BME280_temperature;BME280_humidity;BME280_pressure;Samples;Min_cycle;Max_cycle;Signal;HPM_P1;HPM_P2
2023/05/25 00:02:03;;;;;;;;;;;11.40;74.10;;;;;;5075878;28;19942;-35
2023/05/25 00:04:29;;;;;;;;;;;11.40;74.10;;;;;;5093948;28;20378;-36
2023/05/25 00:06:55;;;;;;;;;;;11.40;74.30;;;;;;5093694;28;20246;-31
2023/05/25 00:09:20;;;;;;;;;;;11.40;74.50;;;;;;5093589;28;19922;-35
2023/05/25 00:11:46;;;;;;;;;;;11.40;74.40;;;;;;5093794;28;19951;-36
2023/05/25 00:14:11;;;;;;;;;;;11.40;74.60;;;;;;5093779;28;19944;-33
2023/05/25 00:16:39;;;;;;;;;;;11.30;74.70;;;;;;5093713;28;19919;-36
2023/05/25 00:19:05;;;;;;;;;;;11.30;74.80;;;;;;5093702;28;19954;-31
2023/05/25 00:21:33;;;;;;;;;;;11.20;75.00;;;;;;5093523;28;19912;-32
2023/05/25 00:23:59;;;;;;;;;;;11.30;75.30;;;;;;5075114;28;20011;-31
2023/05/25 00:26:24;;;;;;;;;;;11.20;75.20;;;;;;5093394;28;20276;-31
2023/05/25 00:28:50;;;;;;;;;;;11.20;75.30;;;;;;5093532;28;19923;-37
2023/05/25 00:31:16;;;;;;;;;;;11.10;75.20;;;;;;5093397;28;19962;-37
2023/05/25 00:33:41;;;;;;;;;;;11.10;75.30;;;;;;5093534;28;19912;-33
2023/05/25 00:36:07;;;;;;;;;;;11.10;75.50;;;;;;5092342;28;19912;-31
2023/05/25 00:38:33;;;;;;;;;;;11.10;75.50;;;;;;5093233;28;19943;-34
2023/05/25 00:40:59;;;;;;;;;;;11.10;75.50;;;;;;5093269;28;19973;-41
2023/05/25 00:43:24;;;;;;;;;;;11.00;75.60;;;;;;5093138;28;19938;-39
2023/05/25 00:45:50;;;;;;;;;;;11.00;75.50;;;;;;5093112;28;19920;-32
2023/05/25 00:48:16;;;;;;;;;;;11.00;75.70;;;;;;5074911;28;19912;-40
2023/05/25 00:50:43;;;;;;;;;;;11.00;75.70;;;;;;5092910;28;19966;-36
2023/05/25 00:53:09;;;;;;;;;;;11.00;75.80;;;;;;5092961;28;19912;-35
2023/05/25 00:55:47;;;;;;;;;;;11.00;75.90;;;;;;5093128;28;20295;-33
2023/05/25 00:58:15;;;;;;;;;;;11.00;75.90;;;;;;5092982;28;20414;-36
2023/05/25 01:00:41;;;;;;;;;;;11.00;76.00;;;;;;5093016;28;19964;-37
2023/05/25 01:03:10;;;;;;;;;;;10.90;76.00;;;;;;5093243;28;19951;-41
2023/05/25 01:05:37;;;;;;;;;;;10.90;76.10;;;;;;5093053;28;20023;-34
2023/05/25 01:08:03;;;;;;;;;;;10.90;76.10;;;;;;5092826;28;20397;-34
2023/05/25 01:10:31;;;;;;;;;;;10.90;76.10;;;;;;5074607;28;19951;-43
2023/05/25 01:12:57;;;;;;;;;;;10.90;76.20;;;;;;5092875;28;19919;-30
2023/05/25 01:15:23;;;;;;;;;;;10.90;76.20;;;;;;5092882;28;19965;-29
2023/05/25 01:17:52;;;;;;;;;;;10.90;76.40;;;;;;5092733;28;20389;-34
2023/05/25 01:20:18;;;;;;;;;;;10.80;76.40;;;;;;5092798;28;19916;-31
2023/05/25 01:22:47;;;;;;;;;;;10.80;76.50;;;;;;5092639;28;20232;-30
2023/05/25 01:25:21;;;;;;;;;;;10.80;76.60;;;;;;5092542;28;19912;-34
2023/05/25 01:27:50;;;;;;;;;;;10.80;76.60;;;;;;5092909;28;20364;-30
2023/05/25 01:30:15;;;;;;;;;;;10.80;76.60;;;;;;5092491;28;19912;-32
2023/05/25 01:32:42;;;;;;;;;;;10.80;77.40;;;;;;5092577;28;20392;-30
2023/05/25 01:35:08;;;;;;;;;;;10.70;77.00;;;;;;5092504;28;19916;-30
2023/05/25 01:37:36;;;;;;;;;;;10.70;77.20;;;;;;5092344;28;20433;-32
2023/05/25 01:40:04;;;;;;;;;;;10.70;77.20;;;;;;5092367;28;20003;-32
2023/05/25 01:42:29;;;;;;;;;;;10.70;77.40;;;;;;5092423;28;20288;-33
2023/05/25 01:44:55;;;;;;;;;;;10.60;77.50;;;;;;5092215;28;19912;-29
2023/05/25 01:47:23;;;;;;;;;;;10.60;77.60;;;;;;5091892;28;19920;-32
2023/05/25 01:50:10;;;;;;;;;;;10.60;77.60;;;;;;5092348;28;19947;-29
2023/05/25 01:52:37;;;;;;;;;;;10.60;77.60;;;;;;5092164;28;20023;-30
2023/05/25 01:55:05;;;;;;;;;;;10.60;77.60;;;;;;5092151;28;19966;-29
2023/05/25 01:57:33;;;;;;;;;;;10.60;77.80;;;;;;5092120;28;20350;-32
2023/05/25 02:00:01;;;;;;;;;;;10.60;78.10;;;;;;5092147;28;19912;-33
2023/05/25 02:02:27;;;;;;;;;;;10.60;78.00;;;;;;5073990;28;19916;-31
2023/05/25 02:04:53;;;;;;;;;;;10.60;78.10;;;;;;5091923;28;19926;-33
2023/05/25 02:07:20;;;;;;;;;;;10.60;78.10;;;;;;5092074;28;19916;-37
2023/05/25 02:09:45;;;;;;;;;;;10.50;78.00;;;;;;5091889;28;20019;-31
2023/05/25 02:12:11;;;;;;;;;;;10.50;78.00;;;;;;5091968;28;20383;-30
2023/05/25 02:14:36;;;;;;;;;;;10.50;77.90;;;;;;5092252;28;19912;-30
2023/05/25 02:17:02;;;;;;;;;;;10.50;77.90;;;;;;5091903;28;20022;-31
2023/05/25 02:19:28;;;;;;;;;;;10.50;78.00;;;;;;5091953;28;20384;-33
2023/05/25 02:21:53;;;;;;;;;;;10.50;78.10;;;;;;5091817;28;19930;-30
2023/05/25 02:24:19;;;;;;;;;;;10.50;78.20;;;;;;5091758;28;19946;-31
2023/05/25 02:26:44;;;;;;;;;;;10.50;78.20;;;;;;5091951;28;19916;-31
2023/05/25 02:29:10;;;;;;;;;;;10.50;78.30;;;;;;5091791;28;19912;-30
2023/05/25 02:31:36;;;;;;;;;;;10.50;78.80;;;;;;5091753;28;19954;-30
2023/05/25 02:34:01;;;;;;;;;;;10.50;78.40;;;;;;5091686;28;19989;-30
2023/05/25 02:36:27;;;;;;;;;;;10.50;78.40;;;;;;5073559;28;19909;-31
2023/05/25 02:38:52;;;;;;;;;;;10.50;78.40;;;;;;5091615;28;19982;-34
2023/05/25 02:41:19;;;;;;;;;;;10.50;78.40;;;;;;5091763;28;19915;-31
2023/05/25 02:43:44;;;;;;;;;;;10.50;78.60;;;;;;5091875;28;19930;-30
2023/05/25 02:46:10;;;;;;;;;;;10.40;78.50;;;;;;5091584;28;19916;-28
2023/05/25 02:48:35;;;;;;;;;;;10.40;78.50;;;;;;5091965;28;19908;-29
2023/05/25 02:51:02;;;;;;;;;;;10.40;78.60;;;;;;5091612;28;20359;-34
2023/05/25 02:53:28;;;;;;;;;;;10.40;78.80;;;;;;5091709;28;19930;-29
2023/05/25 02:55:53;;;;;;;;;;;10.40;78.80;;;;;;5091430;28;20343;-29
2023/05/25 02:58:19;;;;;;;;;;;10.30;78.80;;;;;;5091959;28;19912;-29
2023/05/25 03:00:45;;;;;;;;;;;10.30;79.10;;;;;;5095369;28;19912;-30
2023/05/25 03:03:11;;;;;;;;;;;10.30;79.20;;;;;;5095442;28;20290;-29
2023/05/25 03:05:37;;;;;;;;;;;10.20;79.30;;;;;;5095647;28;19912;-29
2023/05/25 03:08:02;;;;;;;;;;;10.20;79.40;;;;;;5095554;28;19934;-30
2023/05/25 03:10:28;;;;;;;;;;;10.20;79.90;;;;;;5095670;28;20279;-30
2023/05/25 03:12:53;;;;;;;;;;;10.10;79.90;;;;;;5095199;28;19908;-30
2023/05/25 03:15:19;;;;;;;;;;;10.10;80.40;;;;;;5095440;28;19961;-31
2023/05/25 03:17:44;;;;;;;;;;;10.10;80.70;;;;;;5076967;28;19908;-35
2023/05/25 03:20:10;;;;;;;;;;;10.10;80.50;;;;;;5095172;28;19912;-33
2023/05/25 03:22:36;;;;;;;;;;;10.10;80.40;;;;;;5094952;28;19920;-28
2023/05/25 03:25:02;;;;;;;;;;;10.10;80.60;;;;;;5095230;28;20002;-30
2023/05/25 03:27:27;;;;;;;;;;;10.10;80.80;;;;;;5095037;28;20264;-33
2023/05/25 03:29:53;;;;;;;;;;;10.00;80.70;;;;;;5094930;28;19908;-39
2023/05/25 03:32:18;;;;;;;;;;;10.00;81.00;;;;;;5094906;28;20427;-37
2023/05/25 03:34:44;;;;;;;;;;;10.00;81.10;;;;;;5094858;28;20326;-29
2023/05/25 03:37:10;;;;;;;;;;;10.00;81.30;;;;;;5094880;28;19908;-31
2023/05/25 03:39:35;;;;;;;;;;;10.00;81.30;;;;;;5094794;28;20003;-29
2023/05/25 03:42:02;;;;;;;;;;;10.00;81.30;;;;;;5094842;28;19962;-31
2023/05/25 03:44:27;;;;;;;;;;;10.00;81.30;;;;;;5094689;28;19908;-30
2023/05/25 03:46:53;;;;;;;;;;;10.00;81.20;;;;;;5094541;28;19938;-33
2023/05/25 03:49:18;;;;;;;;;;;10.00;81.20;;;;;;5076660;28;20011;-30
2023/05/25 03:51:44;;;;;;;;;;;10.00;81.10;;;;;;5094590;28;20281;-33
2023/05/25 03:54:09;;;;;;;;;;;10.10;81.10;;;;;;5094883;28;19908;-31
2023/05/25 03:56:35;;;;;;;;;;;10.00;80.90;;;;;;5094436;28;19942;-30
2023/05/25 03:59:00;;;;;;;;;;;10.10;80.90;;;;;;5094451;28;19919;-30
2023/05/25 04:01:28;;;;;;;;;;;10.10;80.90;;;;;;5094313;28;19908;-30
2023/05/25 04:03:54;;;;;;;;;;;10.10;80.90;;;;;;5094292;28;19908;-30
2023/05/25 04:06:20;;;;;;;;;;;10.20;80.90;;;;;;5094223;28;20295;-31
2023/05/25 04:08:46;;;;;;;;;;;10.20;80.90;;;;;;5094431;28;19908;-34
2023/05/25 04:11:12;;;;;;;;;;;10.20;80.90;;;;;;5093849;28;19908;-32
2023/05/25 04:13:39;;;;;;;;;;;10.20;80.90;;;;;;5094443;28;19946;-31
2023/05/25 04:16:05;;;;;;;;;;;10.20;81.20;;;;;;5094096;28;19961;-29
2023/05/25 04:18:30;;;;;;;;;;;10.20;81.30;;;;;;5094178;28;19912;-29
2023/05/25 04:20:56;;;;;;;;;;;10.20;81.30;;;;;;5094215;28;20301;-30
2023/05/25 04:23:22;;;;;;;;;;;10.20;81.40;;;;;;5093993;28;19924;-29
2023/05/25 04:25:49;;;;;;;;;;;10.20;81.30;;;;;;5093936;28;20260;-30
2023/05/25 04:28:15;;;;;;;;;;;10.20;81.50;;;;;;5093849;28;19909;-32
2023/05/25 04:30:41;;;;;;;;;;;10.20;81.50;;;;;;5093941;28;20028;-32
2023/05/25 04:33:06;;;;;;;;;;;10.20;81.60;;;;;;5093716;28;19908;-29
2023/05/25 04:35:32;;;;;;;;;;;10.20;81.60;;;;;;5093762;28;19908;-31
2023/05/25 04:38:01;;;;;;;;;;;10.20;81.60;;;;;;5093687;28;19908;-29
2023/05/25 04:40:27;;;;;;;;;;;10.20;81.60;;;;;;5093939;28;20287;-30
2023/05/25 04:42:52;;;;;;;;;;;10.30;81.70;;;;;;5093443;28;19908;-30
2023/05/25 04:45:20;;;;;;;;;;;10.20;81.70;;;;;;5093681;28;19915;-30
2023/05/25 04:47:46;;;;;;;;;;;10.30;81.80;;;;;;5093455;28;19938;-30
2023/05/25 04:50:11;;;;;;;;;;;10.30;82.10;;;;;;5093772;28;19908;-31
2023/05/25 04:52:37;;;;;;;;;;;10.30;82.30;;;;;;5093540;28;19908;-30
2023/05/25 04:55:02;;;;;;;;;;;10.30;82.20;;;;;;5093423;28;19908;-31
2023/05/25 04:57:29;;;;;;;;;;;10.30;82.20;;;;;;5093350;28;19954;-32
2023/05/25 04:59:55;;;;;;;;;;;10.30;82.40;;;;;;5093280;28;20398;-36
2023/05/25 05:02:20;;;;;;;;;;;10.30;82.40;;;;;;5093759;28;19908;-34
2023/05/25 05:04:45;;;;;;;;;;;10.30;82.60;;;;;;5093244;28;20014;-33
2023/05/25 05:07:11;;;;;;;;;;;10.30;82.60;;;;;;5093120;28;20447;-33
2023/05/25 05:09:36;;;;;;;;;;;10.40;82.60;;;;;;5093146;28;19916;-30
2023/05/25 05:12:02;;;;;;;;;;;10.40;82.70;;;;;;5093282;28;19914;-31
2023/05/25 05:14:28;;;;;;;;;;;10.40;82.80;;;;;;5093208;28;19915;-35
2023/05/25 05:16:53;;;;;;;;;;;10.50;82.80;;;;;;5093172;28;19961;-33
2023/05/25 05:19:19;;;;;;;;;;;10.50;82.50;;;;;;5074950;28;20329;-29
2023/05/25 05:21:44;;;;;;;;;;;10.50;82.60;;;;;;5092263;28;20318;-33
2023/05/25 05:24:10;;;;;;;;;;;10.60;82.80;;;;;;5092674;28;19931;-30
2023/05/25 05:26:37;;;;;;;;;;;10.60;82.60;;;;;;5092556;28;20389;-29
2023/05/25 05:29:03;;;;;;;;;;;10.60;82.50;;;;;;5092648;28;19908;-31
2023/05/25 05:31:29;;;;;;;;;;;10.70;83.00;;;;;;5074590;28;19914;-33
2023/05/25 05:33:54;;;;;;;;;;;10.70;83.00;;;;;;5092424;28;20368;-32
2023/05/25 05:36:19;;;;;;;;;;;10.80;83.00;;;;;;5074345;28;19912;-30
2023/05/25 05:38:45;;;;;;;;;;;10.80;82.90;;;;;;5092418;28;19915;-31
2023/05/25 05:41:14;;;;;;;;;;;10.90;82.80;;;;;;5092546;28;19931;-34
2023/05/25 05:43:41;;;;;;;;;;;11.00;82.70;;;;;;5092403;28;19909;-30
2023/05/25 05:46:07;;;;;;;;;;;11.10;82.60;;;;;;5092231;28;19970;-30
2023/05/25 05:48:32;;;;;;;;;;;11.20;82.60;;;;;;5092339;28;19908;-32
2023/05/25 05:50:57;;;;;;;;;;;11.30;82.40;;;;;;5092373;28;19908;-28
2023/05/25 05:53:23;;;;;;;;;;;11.30;82.30;;;;;;5092427;28;19940;-30
2023/05/25 05:55:52;;;;;;;;;;;11.40;82.30;;;;;;5092239;28;19908;-32
2023/05/25 05:58:18;;;;;;;;;;;11.40;82.20;;;;;;5074118;28;19908;-30
2023/05/25 06:00:43;;;;;;;;;;;11.40;82.10;;;;;;5092272;28;19915;-29
2023/05/25 06:03:08;;;;;;;;;;;11.50;82.30;;;;;;5092254;28;20045;-31
2023/05/25 06:05:34;;;;;;;;;;;11.50;82.00;;;;;;5092335;28;19931;-32
2023/05/25 06:08:00;;;;;;;;;;;11.60;82.10;;;;;;5092243;28;19915;-30
2023/05/25 06:10:25;;;;;;;;;;;11.70;81.80;;;;;;5092099;28;19909;-30
2023/05/25 06:12:51;;;;;;;;;;;11.70;82.20;;;;;;5092344;28;20349;-33
2023/05/25 06:15:16;;;;;;;;;;;11.80;82.10;;;;;;5092459;28;19912;-31
2023/05/25 06:17:42;;;;;;;;;;;11.80;81.60;;;;;;5092135;28;19942;-31
2023/05/25 06:20:08;;;;;;;;;;;11.90;81.50;;;;;;5092285;28;19908;-30
2023/05/25 06:22:34;;;;;;;;;;;12.00;81.40;;;;;;5091802;28;19943;-33
2023/05/25 06:25:00;;;;;;;;;;;12.10;81.10;;;;;;5092268;28;19916;-42
2023/05/25 06:27:25;;;;;;;;;;;12.20;81.00;;;;;;5091847;28;19913;-33
2023/05/25 06:29:51;;;;;;;;;;;12.20;80.80;;;;;;5091955;28;19912;-32
2023/05/25 06:32:16;;;;;;;;;;;12.30;80.70;;;;;;5091885;28;20379;-31
2023/05/25 06:34:42;;;;;;;;;;;12.40;80.80;;;;;;5094945;28;19908;-29
2023/05/25 06:37:07;;;;;;;;;;;12.40;80.80;;;;;;5096032;28;19962;-29
2023/05/25 06:39:33;;;;;;;;;;;12.50;80.40;;;;;;5096133;28;19995;-32
2023/05/25 06:41:58;;;;;;;;;;;12.70;80.30;;;;;;5095934;28;20372;-29
2023/05/25 06:44:23;;;;;;;;;;;12.90;79.90;;;;;;5095733;28;19912;-33
2023/05/25 06:46:49;;;;;;;;;;;13.00;79.70;;;;;;5095557;28;19912;-31
2023/05/25 06:49:15;;;;;;;;;;;13.20;79.50;;;;;;5095813;28;20208;-34
2023/05/25 06:51:40;;;;;;;;;;;13.30;79.20;;;;;;5095977;28;19918;-30
2023/05/25 06:54:07;;;;;;;;;;;13.40;78.90;;;;;;5095946;28;20219;-34
2023/05/25 06:56:32;;;;;;;;;;;13.50;78.60;;;;;;5077304;28;19974;-31
2023/05/25 06:58:58;;;;;;;;;;;13.60;78.40;;;;;;5095551;28;20410;-31
2023/05/25 07:01:23;;;;;;;;;;;13.70;78.20;;;;;;5095518;28;19925;-33
2023/05/25 07:03:49;;;;;;;;;;;13.80;78.00;;;;;;5095531;28;19930;-36
2023/05/25 07:06:15;;;;;;;;;;;13.80;77.80;;;;;;5095388;28;20288;-36
2023/05/25 07:08:41;;;;;;;;;;;13.90;77.60;;;;;;5095385;28;20365;-37
2023/05/25 07:11:09;;;;;;;;;;;13.90;77.50;;;;;;5095152;28;20032;-36
2023/05/25 07:13:34;;;;;;;;;;;14.00;77.60;;;;;;5095322;28;19908;-36
2023/05/25 07:16:00;;;;;;;;;;;14.00;77.50;;;;;;5095240;28;20342;-37
2023/05/25 07:18:25;;;;;;;;;;;14.10;77.40;;;;;;5076941;28;19908;-35
2023/05/25 07:20:52;;;;;;;;;;;14.20;77.20;;;;;;5095314;28;19908;-30
2023/05/25 07:23:17;;;;;;;;;;;14.20;76.80;;;;;;5095278;28;19927;-30
2023/05/25 07:25:43;;;;;;;;;;;14.20;76.50;;;;;;5095141;28;19908;-34
2023/05/25 07:28:08;;;;;;;;;;;14.20;76.30;;;;;;5095142;28;19908;-31
2023/05/25 07:30:34;;;;;;;;;;;14.30;76.30;;;;;;5095063;28;19908;-37
2023/05/25 07:32:59;;;;;;;;;;;14.30;76.10;;;;;;5095099;28;19996;-30
2023/05/25 07:35:25;;;;;;;;;;;14.40;75.80;;;;;;5094989;28;19951;-31
2023/05/25 07:37:57;;;;;;;;;;;14.50;75.80;;;;;;5094896;28;19912;-32
2023/05/25 07:40:23;;;;;;;;;;;14.60;75.40;;;;;;5094924;28;19914;-34
2023/05/25 07:42:48;;;;;;;;;;;14.80;75.00;;;;;;5094814;28;20379;-31
2023/05/25 07:45:14;;;;;;;;;;;14.80;74.50;;;;;;5094260;28;19912;-33
2023/05/25 07:47:40;;;;;;;;;;;14.80;74.50;;;;;;5094607;28;19962;-30
2023/05/25 07:50:05;;;;;;;;;;;14.80;74.40;;;;;;5076463;28;20330;-32
2023/05/25 07:52:31;;;;;;;;;;;14.80;74.10;;;;;;5094727;28;19919;-37
2023/05/25 07:54:56;;;;;;;;;;;14.90;73.80;;;;;;5094490;28;19954;-30
2023/05/25 07:57:22;;;;;;;;;;;14.90;72.90;;;;;;5094645;28;19908;-34
2023/05/25 07:59:47;;;;;;;;;;;14.90;72.80;;;;;;5094483;28;19908;-30
2023/05/25 08:02:13;;;;;;;;;;;14.90;73.00;;;;;;5094429;28;19908;-31
2023/05/25 08:04:38;;;;;;;;;;;15.00;72.70;;;;;;5094401;28;20307;-30
2023/05/25 08:07:04;;;;;;;;;;;15.10;72.70;;;;;;5094356;28;19912;-35
2023/05/25 08:09:29;;;;;;;;;;;15.20;72.70;;;;;;5094240;28;19915;-29
2023/05/25 08:11:55;;;;;;;;;;;15.30;72.80;;;;;;5094210;28;19919;-29
2023/05/25 08:14:22;;;;;;;;;;;15.40;71.50;;;;;;5094398;28;19973;-33
2023/05/25 08:16:47;;;;;;;;;;;15.40;71.40;;;;;;5094166;28;19908;-32
2023/05/25 08:19:13;;;;;;;;;;;15.40;71.60;;;;;;5094098;28;19977;-32
2023/05/25 08:21:39;;;;;;;;;;;15.50;71.50;;;;;;5094136;28;20000;-31
2023/05/25 08:24:07;;;;;;;;;;;15.50;71.50;;;;;;5093907;28;19927;-30
2023/05/25 08:26:35;;;;;;;;;;;15.60;70.70;;;;;;5093907;28;19912;-30
2023/05/25 08:29:01;;;;;;;;;;;15.70;70.50;;;;;;5093881;28;19909;-33
2023/05/25 08:31:27;;;;;;;;;;;15.70;70.20;;;;;;5093794;28;20356;-30
2023/05/25 08:33:52;;;;;;;;;;;15.80;70.50;;;;;;5094013;28;20037;-31
2023/05/25 08:36:18;;;;;;;;;;;15.90;70.20;;;;;;5093714;28;19908;-31
2023/05/25 08:38:43;;;;;;;;;;;16.00;70.10;;;;;;5093628;28;19930;-34
2023/05/25 08:41:10;;;;;;;;;;;16.10;70.10;;;;;;5093558;28;19996;-35
2023/05/25 08:43:36;;;;;;;;;;;16.20;69.40;;;;;;5093700;28;20359;-33
2023/05/25 08:46:02;;;;;;;;;;;16.20;69.60;;;;;;5093527;28;19912;-39
2023/05/25 08:48:29;;;;;;;;;;;16.20;69.10;;;;;;5093625;28;19908;-35
2023/05/25 08:50:56;;;;;;;;;;;16.20;69.20;;;;;;5093338;28;20303;-30
2023/05/25 08:53:21;;;;;;;;;;;16.20;69.10;;;;;;5093505;28;19912;-34
2023/05/25 08:55:48;;;;;;;;;;;16.10;69.10;;;;;;5092714;28;20002;-31
2023/05/25 08:58:16;;;;;;;;;;;16.20;69.20;;;;;;5093195;28;19936;-30
2023/05/25 09:00:46;;;;;;;;;;;16.20;69.10;;;;;;5093724;28;19908;-34
2023/05/25 09:03:16;;;;;;;;;;;16.20;69.10;;;;;;5093321;28;19925;-32
2023/05/25 09:05:42;;;;;;;;;;;16.30;69.10;;;;;;5093149;28;19953;-35
2023/05/25 09:08:09;;;;;;;;;;;16.40;68.70;;;;;;5093110;28;20290;-32
2023/05/25 09:10:35;;;;;;;;;;;16.50;67.50;;;;;;5093049;28;20284;-33
2023/05/25 09:13:00;;;;;;;;;;;16.50;67.90;;;;;;5092978;28;19973;-31
2023/05/25 09:15:26;;;;;;;;;;;16.50;67.60;;;;;;5093040;28;20389;-34
2023/05/25 09:17:51;;;;;;;;;;;16.60;66.60;;;;;;5093160;28;19915;-31
2023/05/25 09:20:18;;;;;;;;;;;16.60;67.40;;;;;;5092965;28;19908;-35
2023/05/25 09:22:44;;;;;;;;;;;16.50;67.10;;;;;;5093002;28;20406;-31
2023/05/25 09:25:10;;;;;;;;;;;16.50;67.40;;;;;;5093600;28;19947;-31
2023/05/25 09:27:38;;;;;;;;;;;16.50;67.50;;;;;;5092713;28;19958;-35
2023/05/25 09:30:04;;;;;;;;;;;16.60;67.30;;;;;;5093012;28;19908;-36
2023/05/25 09:32:30;;;;;;;;;;;16.60;67.50;;;;;;5092727;28;19948;-36
2023/05/25 09:35:05;;;;;;;;;;;16.60;67.20;;;;;;5092687;28;19982;-35
2023/05/25 09:37:30;;;;;;;;;;;16.70;66.10;;;;;;5092787;28;19912;-35
2023/05/25 09:39:56;;;;;;;;;;;16.60;66.30;;;;;;5092647;28;20283;-38
2023/05/25 09:42:22;;;;;;;;;;;16.50;66.60;;;;;;5092604;28;20379;-35
2023/05/25 09:44:47;;;;;;;;;;;16.50;65.00;;;;;;5074284;28;19909;-33
2023/05/25 09:47:15;;;;;;;;;;;16.40;66.30;;;;;;5092491;28;20014;-31
2023/05/25 09:49:43;;;;;;;;;;;16.40;66.30;;;;;;5092613;28;19965;-32
2023/05/25 09:52:10;;;;;;;;;;;16.50;66.20;;;;;;5092367;28;19915;-40
2023/05/25 09:54:37;;;;;;;;;;;16.60;66.20;;;;;;5074081;28;20356;-40
2023/05/25 09:57:04;;;;;;;;;;;16.90;65.80;;;;;;5092404;28;19928;-28
2023/05/25 09:59:29;;;;;;;;;;;17.10;65.40;;;;;;5092189;28;19915;-27
2023/05/25 10:01:55;;;;;;;;;;;17.40;65.30;;;;;;5092306;28;19912;-28
2023/05/25 10:04:20;;;;;;;;;;;17.60;65.20;;;;;;5092142;28;19919;-26
2023/05/25 10:06:48;;;;;;;;;;;17.80;64.80;;;;;;5073867;28;19912;-31
2023/05/25 10:09:15;;;;;;;;;;;18.10;64.00;;;;;;5091895;28;19919;-32
2023/05/25 10:11:42;;;;;;;;;;;18.20;63.30;;;;;;5091973;28;19991;-28
2023/05/25 10:14:08;;;;;;;;;;;18.30;63.20;;;;;;5091951;28;20010;-32
2023/05/25 10:16:35;;;;;;;;;;;18.20;61.80;;;;;;5073914;28;19908;-28
2023/05/25 10:19:03;;;;;;;;;;;18.00;60.30;;;;;;5092661;28;19908;-27
2023/05/25 10:21:30;;;;;;;;;;;17.90;60.20;;;;;;5091785;28;19916;-29
2023/05/25 10:24:08;;;;;;;;;;;17.80;60.00;;;;;;5073675;28;19927;-30
2023/05/25 10:26:35;;;;;;;;;;;17.60;60.70;;;;;;5091849;28;20287;-29
2023/05/25 10:29:03;;;;;;;;;;;17.60;60.80;;;;;;5091950;28;20375;-28
2023/05/25 10:31:30;;;;;;;;;;;17.60;61.20;;;;;;5091914;28;20015;-32
2023/05/25 10:33:57;;;;;;;;;;;17.60;61.30;;;;;;5091913;28;20279;-35
2023/05/25 10:36:23;;;;;;;;;;;17.70;61.50;;;;;;5091794;28;20360;-26
2023/05/25 10:38:50;;;;;;;;;;;17.80;61.30;;;;;;5091729;28;19969;-28
2023/05/25 10:41:16;;;;;;;;;;;17.90;60.90;;;;;;5091652;28;19931;-30
2023/05/25 10:43:42;;;;;;;;;;;18.00;61.30;;;;;;5091763;28;19908;-28
2023/05/25 10:46:08;;;;;;;;;;;18.10;60.40;;;;;;5091613;28;19935;-28
2023/05/25 10:48:34;;;;;;;;;;;18.30;60.70;;;;;;5091734;28;20364;-30
2023/05/25 10:50:59;;;;;;;;;;;18.40;60.70;;;;;;5091931;28;19908;-29
2023/05/25 10:53:25;;;;;;;;;;;18.50;60.30;;;;;;5091789;28;20232;-28
2023/05/25 10:55:50;;;;;;;;;;;18.50;60.40;;;;;;5073423;28;19912;-28
2023/05/25 10:58:17;;;;;;;;;;;18.50;59.10;;;;;;5091523;28;19909;-27
2023/05/25 11:00:55;;;;;;;;;;;18.40;58.10;;;;;;5091610;28;19953;-30
2023/05/25 11:03:21;;;;;;;;;;;18.40;58.70;;;;;;5091429;28;20019;-30
2023/05/25 11:05:49;;;;;;;;;;;18.40;59.10;;;;;;5091501;28;19951;-27
2023/05/25 11:08:16;;;;;;;;;;;18.60;58.70;;;;;;5091618;28;20287;-28
2023/05/25 11:10:42;;;;;;;;;;;18.70;57.90;;;;;;5091439;28;19934;-32
2023/05/25 11:13:19;;;;;;;;;;;18.80;57.00;;;;;;5091563;28;19908;-35
2023/05/25 11:15:46;;;;;;;;;;;18.70;57.90;;;;;;5091461;28;19912;-36
2023/05/25 11:18:15;;;;;;;;;;;18.60;58.10;;;;;;5091431;28;19908;-28
2023/05/25 11:20:40;;;;;;;;;;;18.60;58.30;;;;;;5094005;28;19916;-27
2023/05/25 11:23:21;;;;;;;;;;;18.50;58.10;;;;;;5094973;28;19920;-31
2023/05/25 11:25:47;;;;;;;;;;;18.50;57.90;;;;;;5095021;28;19908;-27
2023/05/25 11:28:14;;;;;;;;;;;18.40;57.50;;;;;;5095073;28;19909;-30
2023/05/25 11:30:40;;;;;;;;;;;18.40;58.20;;;;;;5094927;28;19912;-30
2023/05/25 11:33:07;;;;;;;;;;;18.50;58.60;;;;;;5094892;28;20007;-27
2023/05/25 11:35:36;;;;;;;;;;;18.70;58.70;;;;;;5095041;28;19908;-26
2023/05/25 11:38:05;;;;;;;;;;;18.80;57.30;;;;;;5094777;28;19962;-27
2023/05/25 11:40:31;;;;;;;;;;;18.80;57.50;;;;;;5094851;28;19959;-27
2023/05/25 11:42:59;;;;;;;;;;;18.90;56.00;;;;;;5094622;28;19908;-43
2023/05/25 11:45:27;;;;;;;;;;;19.00;55.60;;;;;;5094773;28;19915;-44
2023/05/25 11:47:52;;;;;;;;;;;19.00;55.00;;;;;;5094689;28;19912;-43
2023/05/25 11:50:18;;;;;;;;;;;19.00;55.80;;;;;;5094603;28;20395;-42
2023/05/25 11:52:43;;;;;;;;;;;19.00;54.70;;;;;;5094579;28;20282;-44
2023/05/25 11:55:15;;;;;;;;;;;18.90;55.20;;;;;;5094622;28;19915;-43
2023/05/25 11:57:40;;;;;;;;;;;19.00;55.30;;;;;;5094326;28;20090;-44
2023/05/25 12:00:10;;;;;;;;;;;19.00;55.20;;;;;;5094568;28;19915;-43
2023/05/25 12:02:36;;;;;;;;;;;19.00;55.40;;;;;;5094665;28;20379;-41
2023/05/25 12:05:01;;;;;;;;;;;19.00;55.20;;;;;;5094449;28;19966;-44
2023/05/25 12:07:27;;;;;;;;;;;19.20;55.20;;;;;;5094307;28;19951;-43
2023/05/25 12:10:12;;;;;;;;;;;19.30;54.40;;;;;;5094353;28;20348;-46
2023/05/25 12:12:41;;;;;;;;;;;19.40;54.40;;;;;;5094255;28;19916;-43
2023/05/25 12:15:08;;;;;;;;;;;19.40;54.90;;;;;;5094372;28;19916;-44
2023/05/25 12:17:33;;;;;;;;;;;19.40;54.90;;;;;;5094342;28;19953;-45
2023/05/25 12:19:59;;;;;;;;;;;19.50;55.00;;;;;;5094172;28;19908;-43
2023/05/25 12:22:25;;;;;;;;;;;19.50;54.60;;;;;;5094042;28;19908;-43
2023/05/25 12:24:51;;;;;;;;;;;19.60;54.80;;;;;;5093945;28;20387;-42
2023/05/25 12:27:17;;;;;;;;;;;19.60;55.20;;;;;;5093896;28;19923;-42
2023/05/25 12:29:46;;;;;;;;;;;19.70;55.30;;;;;;5093879;28;20279;-41
2023/05/25 12:32:12;;;;;;;;;;;19.80;54.80;;;;;;5093821;28;19908;-46
2023/05/25 12:34:37;;;;;;;;;;;19.80;55.00;;;;;;5094068;28;20283;-41
2023/05/25 12:37:03;;;;;;;;;;;19.80;54.70;;;;;;5075807;28;19910;-42
2023/05/25 12:39:28;;;;;;;;;;;19.80;54.20;;;;;;5093896;28;19911;-44
2023/05/25 12:41:54;;;;;;;;;;;19.70;54.70;;;;;;5093948;28;19933;-41
2023/05/25 12:44:20;;;;;;;;;;;19.60;54.30;;;;;;5093733;28;19908;-43
2023/05/25 12:46:46;;;;;;;;;;;19.60;54.50;;;;;;5093663;28;20283;-43
2023/05/25 12:49:41;;;;;;;;;;;19.70;54.40;;;;;;5093724;28;19995;-42
2023/05/25 12:52:07;;;;;;;;;;;19.80;54.40;;;;;;5071691;28;19908;-43
2023/05/25 12:54:43;;;;;;;;;;;19.90;53.10;;;;;;5093540;28;20371;-45
2023/05/25 12:57:10;;;;;;;;;;;19.80;53.50;;;;;;5093176;28;19915;-33
2023/05/25 12:59:36;;;;;;;;;;;19.80;53.20;;;;;;5093392;28;20317;-29
2023/05/25 13:02:02;;;;;;;;;;;19.80;53.10;;;;;;5093381;28;19977;-30
2023/05/25 13:04:28;;;;;;;;;;;19.80;53.40;;;;;;5093400;28;20367;-30
2023/05/25 13:06:54;;;;;;;;;;;19.80;53.10;;;;;;5093266;28;19924;-33
2023/05/25 13:09:22;;;;;;;;;;;19.80;52.80;;;;;;5093307;28;19908;-28
2023/05/25 13:11:47;;;;;;;;;;;19.80;53.10;;;;;;5093120;28;19908;-30
2023/05/25 13:14:13;;;;;;;;;;;19.90;53.20;;;;;;5093175;28;20368;-30
2023/05/25 13:16:38;;;;;;;;;;;20.10;52.90;;;;;;5092997;28;19962;-29
2023/05/25 13:19:03;;;;;;;;;;;20.20;52.50;;;;;;5092905;28;19953;-35
2023/05/25 13:21:29;;;;;;;;;;;20.20;52.80;;;;;;5093215;28;19908;-29
2023/05/25 13:23:54;;;;;;;;;;;20.30;52.70;;;;;;5092685;28;19934;-28
2023/05/25 13:26:20;;;;;;;;;;;20.30;52.30;;;;;;5093064;28;19963;-29
2023/05/25 13:28:47;;;;;;;;;;;20.20;52.40;;;;;;5092739;28;19915;-29
2023/05/25 13:31:14;;;;;;;;;;;20.20;52.80;;;;;;5092358;28;20361;-27
2023/05/25 13:33:39;;;;;;;;;;;20.20;52.30;;;;;;5092752;28;19908;-34
2023/05/25 13:36:08;;;;;;;;;;;20.10;51.90;;;;;;5092811;28;20364;-30
2023/05/25 13:38:34;;;;;;;;;;;19.90;52.10;;;;;;5092687;28;19908;-29
2023/05/25 13:40:59;;;;;;;;;;;19.70;52.50;;;;;;5074050;28;20415;-33
2023/05/25 13:43:25;;;;;;;;;;;19.60;53.10;;;;;;5092228;28;19973;-31
2023/05/25 13:45:51;;;;;;;;;;;19.60;53.20;;;;;;5074415;28;19912;-30
2023/05/25 13:48:16;;;;;;;;;;;19.60;52.90;;;;;;5092639;28;19908;-32
2023/05/25 13:50:43;;;;;;;;;;;19.50;52.90;;;;;;5092557;28;19952;-32
2023/05/25 13:53:09;;;;;;;;;;;19.50;52.90;;;;;;5092369;28;19908;-32
2023/05/25 13:55:35;;;;;;;;;;;19.60;53.30;;;;;;5092406;28;19908;-29
2023/05/25 13:58:00;;;;;;;;;;;19.80;53.50;;;;;;5092331;28;19935;-35
2023/05/25 14:00:26;;;;;;;;;;;19.90;53.50;;;;;;5092449;28;19997;-34
2023/05/25 14:02:52;;;;;;;;;;;19.80;51.70;;;;;;5092284;28;20429;-30
2023/05/25 14:05:18;;;;;;;;;;;19.80;52.70;;;;;;5092316;28;19908;-28
2023/05/25 14:07:44;;;;;;;;;;;19.80;52.70;;;;;;5092261;28;20410;-32
2023/05/25 14:10:09;;;;;;;;;;;19.90;52.60;;;;;;5092395;28;19908;-29
2023/05/25 14:12:39;;;;;;;;;;;20.20;52.40;;;;;;5092304;28;19999;-29